sensor_id;sensor_type;location;lat;lon;timestamp;P1;durP1;ratioP1;P2;durP2;ratioP2
23614;SDS011;11985;49.404;7.734;2022-10-16T00:01:52;6.82;;;1.30;;
23614;SDS011;11985;49.404;7.734;2022-10-16T00:03:54;4.47;;;1.10;;
23614;SDS011;11985;49.404;7.734;2022-10-16T00:05:58;2.58;;;1.10;;
23614;SDS011;11985;49.404;7.734;2022-10-16T00:08:00;1.00;;;0.90;;
23614;SDS011;11985;49.404;7.734;2022-10-16T00:12:05;2.20;;;1.00;;
23614;SDS011;11985;49.404;7.734;2022-10-16T00:14:09;3.28;;;1.08;;
23614;SDS011;11985;49.404;7.734;2022-10-16T00:16:13;2.95;;;1.20;;
23614;SDS011;11985;49.404;7.734;2022-10-16T00:18:16;11.50;;;1.38;;
23614;SDS011;11985;49.404;7.734;2022-10-16T00:20:17;2.95;;;1.20;;
23614;SDS011;11985;49.404;7.734;2022-10-16T00:22:19;1.20;;;0.98;;
23614;SDS011;11985;49.404;7.734;2022-10-16T00:24:21;1.10;;;1.00;;
23614;SDS011;11985;49.404;7.734;2022-10-16T00:26:22;1.88;;;1.08;;
23614;SDS011;11985;49.404;7.734;2022-10-16T00:28:24;1.38;;;1.10;;
23614;SDS011;11985;49.404;7.734;2022-10-16T00:30:27;2.97;;;1.33;;
23614;SDS011;11985;49.404;7.734;2022-10-16T00:32:29;1.40;;;1.02;;
23614;SDS011;11985;49.404;7.734;2022-10-16T00:34:31;3.28;;;1.20;;
23614;SDS011;11985;49.404;7.734;2022-10-16T00:36:34;6.95;;;1.85;;
23614;SDS011;11985;49.404;7.734;2022-10-16T00:38:36;3.33;;;1.00;;
23614;SDS011;11985;49.404;7.734;2022-10-16T00:40:40;1.10;;;1.00;;
23614;SDS011;11985;49.404;7.734;2022-10-16T00:42:42;5.40;;;1.10;;
23614;SDS011;11985;49.404;7.734;2022-10-16T00:44:47;3.40;;;1.25;;
23614;SDS011;11985;49.404;7.734;2022-10-16T00:46:53;1.88;;;1.02;;
23614;SDS011;11985;49.404;7.734;2022-10-16T00:48:55;1.88;;;1.02;;
23614;SDS011;11985;49.404;7.734;2022-10-16T00:51:05;5.65;;;1.23;;
23614;SDS011;11985;49.404;7.734;2022-10-16T00:53:08;2.78;;;1.00;;
23614;SDS011;11985;49.404;7.734;2022-10-16T00:55:11;6.32;;;1.85;;
23614;SDS011;11985;49.404;7.734;2022-10-16T00:57:13;5.35;;;1.30;;
23614;SDS011;11985;49.404;7.734;2022-10-16T00:59:16;7.25;;;1.05;;
23614;SDS011;11985;49.404;7.734;2022-10-16T01:01:20;3.67;;;1.30;;
23614;SDS011;11985;49.404;7.734;2022-10-16T01:03:22;7.35;;;1.10;;
23614;SDS011;11985;49.404;7.734;2022-10-16T01:05:28;1.20;;;1.10;;
23614;SDS011;11985;49.404;7.734;2022-10-16T01:07:39;3.88;;;1.13;;
23614;SDS011;11985;49.404;7.734;2022-10-16T01:09:51;2.30;;;1.20;;
23614;SDS011;11985;49.404;7.734;2022-10-16T01:12:01;2.78;;;1.55;;
23614;SDS011;11985;49.404;7.734;2022-10-16T01:14:12;1.88;;;1.13;;
23614;SDS011;11985;49.404;7.734;2022-10-16T01:16:22;1.30;;;1.10;;
23614;SDS011;11985;49.404;7.734;2022-10-16T01:18:32;2.00;;;1.20;;
23614;SDS011;11985;49.404;7.734;2022-10-16T01:20:37;3.30;;;1.10;;
23614;SDS011;11985;49.404;7.734;2022-10-16T01:22:50;3.05;;;1.10;;
23614;SDS011;11985;49.404;7.734;2022-10-16T01:25:07;2.55;;;1.13;;
23614;SDS011;11985;49.404;7.734;2022-10-16T01:27:14;1.30;;;1.10;;
23614;SDS011;11985;49.404;7.734;2022-10-16T01:29:20;1.77;;;1.25;;
23614;SDS011;11985;49.404;7.734;2022-10-16T01:31:27;2.40;;;1.30;;
23614;SDS011;11985;49.404;7.734;2022-10-16T01:33:34;2.42;;;1.13;;
23614;SDS011;11985;49.404;7.734;2022-10-16T01:35:41;3.05;;;1.02;;
23614;SDS011;11985;49.404;7.734;2022-10-16T01:37:48;12.05;;;1.40;;
23614;SDS011;11985;49.404;7.734;2022-10-16T01:39:53;6.63;;;1.83;;
23614;SDS011;11985;49.404;7.734;2022-10-16T01:42:00;3.20;;;1.20;;
23614;SDS011;11985;49.404;7.734;2022-10-16T01:44:08;6.50;;;1.23;;
23614;SDS011;11985;49.404;7.734;2022-10-16T01:46:13;4.20;;;1.10;;
23614;SDS011;11985;49.404;7.734;2022-10-16T01:48:19;2.83;;;1.27;;
23614;SDS011;11985;49.404;7.734;2022-10-16T01:50:24;5.93;;;1.20;;
23614;SDS011;11985;49.404;7.734;2022-10-16T01:52:28;3.00;;;1.17;;
23614;SDS011;11985;49.404;7.734;2022-10-16T01:54:30;10.23;;;1.63;;
23614;SDS011;11985;49.404;7.734;2022-10-16T01:56:36;9.73;;;1.30;;
23614;SDS011;11985;49.404;7.734;2022-10-16T01:58:41;7.22;;;1.55;;
23614;SDS011;11985;49.404;7.734;2022-10-16T02:00:48;3.47;;;1.55;;
23614;SDS011;11985;49.404;7.734;2022-10-16T02:02:51;1.55;;;1.33;;
23614;SDS011;11985;49.404;7.734;2022-10-16T02:04:56;3.88;;;1.38;;
23614;SDS011;11985;49.404;7.734;2022-10-16T02:07:05;10.65;;;1.27;;
23614;SDS011;11985;49.404;7.734;2022-10-16T02:09:08;3.72;;;1.10;;
23614;SDS011;11985;49.404;7.734;2022-10-16T02:11:10;3.95;;;1.40;;
23614;SDS011;11985;49.404;7.734;2022-10-16T02:13:13;2.00;;;1.08;;
23614;SDS011;11985;49.404;7.734;2022-10-16T02:15:19;2.80;;;1.30;;
23614;SDS011;11985;49.404;7.734;2022-10-16T02:17:22;2.25;;;0.95;;
23614;SDS011;11985;49.404;7.734;2022-10-16T02:19:24;5.15;;;1.60;;
23614;SDS011;11985;49.404;7.734;2022-10-16T02:21:28;3.00;;;1.00;;
23614;SDS011;11985;49.404;7.734;2022-10-16T02:23:35;1.52;;;0.90;;
23614;SDS011;11985;49.404;7.734;2022-10-16T02:25:44;1.80;;;1.00;;
23614;SDS011;11985;49.404;7.734;2022-10-16T02:27:50;3.35;;;0.90;;
23614;SDS011;11985;49.404;7.734;2022-10-16T02:29:58;3.08;;;0.90;;
23614;SDS011;11985;49.404;7.734;2022-10-16T02:32:07;3.22;;;1.15;;
23614;SDS011;11985;49.404;7.734;2022-10-16T02:34:12;0.90;;;0.70;;
23614;SDS011;11985;49.404;7.734;2022-10-16T02:36:17;3.83;;;0.88;;
23614;SDS011;11985;49.404;7.734;2022-10-16T02:38:20;4.93;;;1.05;;
23614;SDS011;11985;49.404;7.734;2022-10-16T02:40:23;6.93;;;0.90;;
23614;SDS011;11985;49.404;7.734;2022-10-16T02:42:29;5.32;;;0.90;;
23614;SDS011;11985;49.404;7.734;2022-10-16T02:44:34;6.72;;;1.08;;
23614;SDS011;11985;49.404;7.734;2022-10-16T02:46:38;7.57;;;1.20;;
23614;SDS011;11985;49.404;7.734;2022-10-16T02:48:40;7.78;;;1.17;;
23614;SDS011;11985;49.404;7.734;2022-10-16T02:50:43;3.95;;;1.10;;
23614;SDS011;11985;49.404;7.734;2022-10-16T02:52:44;8.95;;;1.08;;
23614;SDS011;11985;49.404;7.734;2022-10-16T02:54:46;4.20;;;1.00;;
23614;SDS011;11985;49.404;7.734;2022-10-16T02:56:47;1.35;;;0.90;;
23614;SDS011;11985;49.404;7.734;2022-10-16T02:58:49;4.10;;;1.20;;
23614;SDS011;11985;49.404;7.734;2022-10-16T03:00:50;1.35;;;0.75;;
23614;SDS011;11985;49.404;7.734;2022-10-16T03:02:52;6.22;;;1.00;;
23614;SDS011;11985;49.404;7.734;2022-10-16T03:06:57;3.03;;;0.85;;
23614;SDS011;11985;49.404;7.734;2022-10-16T03:08:58;2.65;;;0.80;;
23614;SDS011;11985;49.404;7.734;2022-10-16T03:11:00;3.45;;;1.00;;
23614;SDS011;11985;49.404;7.734;2022-10-16T03:15:03;2.83;;;0.80;;
23614;SDS011;11985;49.404;7.734;2022-10-16T03:17:06;3.63;;;0.80;;
23614;SDS011;11985;49.404;7.734;2022-10-16T03:19:11;4.35;;;0.80;;
23614;SDS011;11985;49.404;7.734;2022-10-16T03:21:12;2.38;;;0.90;;
23614;SDS011;11985;49.404;7.734;2022-10-16T03:23:15;1.00;;;0.85;;
23614;SDS011;11985;49.404;7.734;2022-10-16T03:25:17;6.35;;;1.05;;
23614;SDS011;11985;49.404;7.734;2022-10-16T03:27:18;2.03;;;0.60;;
23614;SDS011;11985;49.404;7.734;2022-10-16T03:29:20;1.42;;;0.63;;
23614;SDS011;11985;49.404;7.734;2022-10-16T03:31:22;3.75;;;0.75;;
23614;SDS011;11985;49.404;7.734;2022-10-16T03:33:25;2.22;;;0.70;;
23614;SDS011;11985;49.404;7.734;2022-10-16T03:35:26;4.45;;;0.70;;
23614;SDS011;11985;49.404;7.734;2022-10-16T03:37:28;1.10;;;0.80;;
23614;SDS011;11985;49.404;7.734;2022-10-16T03:39:31;2.88;;;0.85;;
23614;SDS011;11985;49.404;7.734;2022-10-16T03:41:33;3.20;;;0.70;;
23614;SDS011;11985;49.404;7.734;2022-10-16T03:43:36;5.63;;;1.02;;
23614;SDS011;11985;49.404;7.734;2022-10-16T03:45:37;13.90;;;1.27;;
23614;SDS011;11985;49.404;7.734;2022-10-16T03:47:39;4.32;;;0.85;;
23614;SDS011;11985;49.404;7.734;2022-10-16T03:49:41;8.93;;;1.10;;
23614;SDS011;11985;49.404;7.734;2022-10-16T03:51:43;7.75;;;0.73;;
23614;SDS011;11985;49.404;7.734;2022-10-16T03:55:48;5.68;;;0.70;;
23614;SDS011;11985;49.404;7.734;2022-10-16T03:57:49;2.72;;;0.70;;
23614;SDS011;11985;49.404;7.734;2022-10-16T03:59:51;3.70;;;1.17;;
23614;SDS011;11985;49.404;7.734;2022-10-16T04:01:53;3.50;;;0.80;;
23614;SDS011;11985;49.404;7.734;2022-10-16T04:03:54;4.40;;;0.90;;
23614;SDS011;11985;49.404;7.734;2022-10-16T04:05:56;10.10;;;1.05;;
23614;SDS011;11985;49.404;7.734;2022-10-16T04:07:57;2.05;;;0.95;;
23614;SDS011;11985;49.404;7.734;2022-10-16T04:09:59;3.25;;;1.00;;
23614;SDS011;11985;49.404;7.734;2022-10-16T04:12:02;3.55;;;1.10;;
23614;SDS011;11985;49.404;7.734;2022-10-16T04:14:05;2.70;;;0.90;;
23614;SDS011;11985;49.404;7.734;2022-10-16T04:16:07;1.83;;;0.82;;
23614;SDS011;11985;49.404;7.734;2022-10-16T04:18:08;4.88;;;1.05;;
23614;SDS011;11985;49.404;7.734;2022-10-16T04:20:10;6.05;;;0.88;;
23614;SDS011;11985;49.404;7.734;2022-10-16T04:22:11;4.85;;;0.98;;
23614;SDS011;11985;49.404;7.734;2022-10-16T04:24:13;8.68;;;1.10;;
23614;SDS011;11985;49.404;7.734;2022-10-16T04:26:15;13.20;;;1.27;;
23614;SDS011;11985;49.404;7.734;2022-10-16T04:30:20;9.32;;;1.75;;
23614;SDS011;11985;49.404;7.734;2022-10-16T04:32:22;3.15;;;0.75;;
23614;SDS011;11985;49.404;7.734;2022-10-16T04:34:24;2.78;;;1.00;;
23614;SDS011;11985;49.404;7.734;2022-10-16T04:36:26;2.15;;;1.00;;
23614;SDS011;11985;49.404;7.734;2022-10-16T04:38:28;16.27;;;1.80;;
23614;SDS011;11985;49.404;7.734;2022-10-16T04:40:30;5.95;;;0.95;;
23614;SDS011;11985;49.404;7.734;2022-10-16T04:42:36;9.07;;;1.38;;
23614;SDS011;11985;49.404;7.734;2022-10-16T04:44:42;10.15;;;1.25;;
23614;SDS011;11985;49.404;7.734;2022-10-16T04:46:44;10.40;;;1.15;;
23614;SDS011;11985;49.404;7.734;2022-10-16T04:48:45;11.52;;;1.67;;
23614;SDS011;11985;49.404;7.734;2022-10-16T04:50:47;4.72;;;1.30;;
23614;SDS011;11985;49.404;7.734;2022-10-16T04:52:50;14.88;;;1.15;;
23614;SDS011;11985;49.404;7.734;2022-10-16T04:54:51;13.05;;;1.30;;
23614;SDS011;11985;49.404;7.734;2022-10-16T04:56:54;9.02;;;1.27;;
23614;SDS011;11985;49.404;7.734;2022-10-16T04:58:55;4.60;;;1.40;;
23614;SDS011;11985;49.404;7.734;2022-10-16T05:00:59;1.17;;;1.08;;
23614;SDS011;11985;49.404;7.734;2022-10-16T05:03:00;3.92;;;1.67;;
23614;SDS011;11985;49.404;7.734;2022-10-16T05:05:06;4.00;;;1.20;;
23614;SDS011;11985;49.404;7.734;2022-10-16T05:07:09;4.88;;;1.67;;
23614;SDS011;11985;49.404;7.734;2022-10-16T05:09:11;10.98;;;1.52;;
23614;SDS011;11985;49.404;7.734;2022-10-16T05:11:13;5.15;;;1.50;;
23614;SDS011;11985;49.404;7.734;2022-10-16T05:13:14;4.93;;;1.50;;
23614;SDS011;11985;49.404;7.734;2022-10-16T05:15:16;11.57;;;2.47;;
23614;SDS011;11985;49.404;7.734;2022-10-16T05:17:20;5.03;;;1.40;;
23614;SDS011;11985;49.404;7.734;2022-10-16T05:19:22;13.35;;;1.60;;
23614;SDS011;11985;49.404;7.734;2022-10-16T05:21:23;8.50;;;1.90;;
23614;SDS011;11985;49.404;7.734;2022-10-16T05:23:26;7.43;;;2.10;;
23614;SDS011;11985;49.404;7.734;2022-10-16T05:25:28;2.85;;;1.77;;
23614;SDS011;11985;49.404;7.734;2022-10-16T05:27:29;5.25;;;2.20;;
23614;SDS011;11985;49.404;7.734;2022-10-16T05:29:31;7.05;;;2.00;;
23614;SDS011;11985;49.404;7.734;2022-10-16T05:31:32;3.72;;;1.70;;
23614;SDS011;11985;49.404;7.734;2022-10-16T05:33:35;2.28;;;2.00;;
23614;SDS011;11985;49.404;7.734;2022-10-16T05:35:37;6.22;;;2.10;;
23614;SDS011;11985;49.404;7.734;2022-10-16T05:37:40;4.70;;;1.83;;
23614;SDS011;11985;49.404;7.734;2022-10-16T05:39:41;20.80;;;2.25;;
23614;SDS011;11985;49.404;7.734;2022-10-16T05:43:46;6.57;;;1.70;;
23614;SDS011;11985;49.404;7.734;2022-10-16T05:45:55;8.40;;;2.00;;
23614;SDS011;11985;49.404;7.734;2022-10-16T05:47:57;5.75;;;1.90;;
23614;SDS011;11985;49.404;7.734;2022-10-16T05:50:00;9.40;;;2.00;;
23614;SDS011;11985;49.404;7.734;2022-10-16T05:52:02;5.25;;;1.92;;
23614;SDS011;11985;49.404;7.734;2022-10-16T05:54:03;14.65;;;2.10;;
23614;SDS011;11985;49.404;7.734;2022-10-16T05:56:05;4.25;;;1.85;;
23614;SDS011;11985;49.404;7.734;2022-10-16T05:58:08;4.20;;;1.67;;
23614;SDS011;11985;49.404;7.734;2022-10-16T06:00:13;3.20;;;2.33;;
23614;SDS011;11985;49.404;7.734;2022-10-16T06:04:16;5.55;;;2.00;;
23614;SDS011;11985;49.404;7.734;2022-10-16T06:06:20;3.80;;;1.88;;
23614;SDS011;11985;49.404;7.734;2022-10-16T06:08:24;2.40;;;2.20;;
23614;SDS011;11985;49.404;7.734;2022-10-16T06:10:25;5.95;;;2.20;;
23614;SDS011;11985;49.404;7.734;2022-10-16T06:12:29;13.30;;;3.33;;
23614;SDS011;11985;49.404;7.734;2022-10-16T06:14:31;8.45;;;2.00;;
23614;SDS011;11985;49.404;7.734;2022-10-16T06:18:35;5.45;;;1.90;;
23614;SDS011;11985;49.404;7.734;2022-10-16T06:22:41;3.65;;;1.88;;
23614;SDS011;11985;49.404;7.734;2022-10-16T06:24:43;4.53;;;2.15;;
23614;SDS011;11985;49.404;7.734;2022-10-16T06:26:46;11.73;;;2.20;;
23614;SDS011;11985;49.404;7.734;2022-10-16T06:28:48;6.65;;;2.05;;
23614;SDS011;11985;49.404;7.734;2022-10-16T06:30:58;2.53;;;1.65;;
23614;SDS011;11985;49.404;7.734;2022-10-16T06:33:00;8.45;;;2.00;;
23614;SDS011;11985;49.404;7.734;2022-10-16T06:37:03;3.45;;;1.50;;
23614;SDS011;11985;49.404;7.734;2022-10-16T06:41:09;4.22;;;1.98;;
23614;SDS011;11985;49.404;7.734;2022-10-16T06:43:13;1.88;;;1.58;;
23614;SDS011;11985;49.404;7.734;2022-10-16T06:45:14;2.90;;;2.05;;
23614;SDS011;11985;49.404;7.734;2022-10-16T06:47:16;4.57;;;2.10;;
23614;SDS011;11985;49.404;7.734;2022-10-16T06:51:23;4.53;;;1.73;;
23614;SDS011;11985;49.404;7.734;2022-10-16T06:53:26;3.33;;;1.75;;
23614;SDS011;11985;49.404;7.734;2022-10-16T06:55:30;4.00;;;1.67;;
23614;SDS011;11985;49.404;7.734;2022-10-16T06:57:32;1.83;;;1.42;;
23614;SDS011;11985;49.404;7.734;2022-10-16T06:59:33;5.40;;;1.60;;
23614;SDS011;11985;49.404;7.734;2022-10-16T07:01:35;8.02;;;1.85;;
23614;SDS011;11985;49.404;7.734;2022-10-16T07:03:37;2.55;;;1.52;;
23614;SDS011;11985;49.404;7.734;2022-10-16T07:05:39;6.63;;;1.80;;
23614;SDS011;11985;49.404;7.734;2022-10-16T07:09:42;8.07;;;1.70;;
23614;SDS011;11985;49.404;7.734;2022-10-16T07:13:47;1.98;;;1.75;;
23614;SDS011;11985;49.404;7.734;2022-10-16T07:15:49;4.32;;;1.80;;
23614;SDS011;11985;49.404;7.734;2022-10-16T07:17:51;7.07;;;1.98;;
23614;SDS011;11985;49.404;7.734;2022-10-16T07:19:53;7.53;;;2.03;;
23614;SDS011;11985;49.404;7.734;2022-10-16T07:21:55;8.23;;;1.88;;
23614;SDS011;11985;49.404;7.734;2022-10-16T07:25:59;11.68;;;1.75;;
23614;SDS011;11985;49.404;7.734;2022-10-16T07:30:05;9.40;;;2.00;;
23614;SDS011;11985;49.404;7.734;2022-10-16T07:32:07;4.25;;;2.10;;
23614;SDS011;11985;49.404;7.734;2022-10-16T07:36:11;9.38;;;3.47;;
23614;SDS011;11985;49.404;7.734;2022-10-16T07:38:15;6.45;;;1.75;;
23614;SDS011;11985;49.404;7.734;2022-10-16T07:40:18;6.57;;;1.92;;
23614;SDS011;11985;49.404;7.734;2022-10-16T07:42:23;5.15;;;1.80;;
23614;SDS011;11985;49.404;7.734;2022-10-16T07:44:26;7.95;;;1.90;;
23614;SDS011;11985;49.404;7.734;2022-10-16T07:46:29;5.97;;;2.10;;
23614;SDS011;11985;49.404;7.734;2022-10-16T07:48:33;4.72;;;1.80;;
23614;SDS011;11985;49.404;7.734;2022-10-16T07:50:35;4.97;;;2.17;;
23614;SDS011;11985;49.404;7.734;2022-10-16T07:52:38;5.20;;;1.88;;
23614;SDS011;11985;49.404;7.734;2022-10-16T07:54:39;5.85;;;2.22;;
23614;SDS011;11985;49.404;7.734;2022-10-16T07:56:41;6.32;;;3.55;;
23614;SDS011;11985;49.404;7.734;2022-10-16T08:00:47;10.05;;;2.60;;
23614;SDS011;11985;49.404;7.734;2022-10-16T08:02:49;4.10;;;2.47;;
23614;SDS011;11985;49.404;7.734;2022-10-16T08:04:52;7.25;;;2.83;;
23614;SDS011;11985;49.404;7.734;2022-10-16T08:06:56;6.65;;;2.85;;
23614;SDS011;11985;49.404;7.734;2022-10-16T08:09:15;7.93;;;2.58;;
23614;SDS011;11985;49.404;7.734;2022-10-16T08:11:18;6.97;;;2.40;;
23614;SDS011;11985;49.404;7.734;2022-10-16T08:13:20;5.93;;;2.38;;
23614;SDS011;11985;49.404;7.734;2022-10-16T08:17:26;6.47;;;2.40;;
23614;SDS011;11985;49.404;7.734;2022-10-16T08:19:30;4.78;;;2.35;;
23614;SDS011;11985;49.404;7.734;2022-10-16T08:21:35;5.18;;;2.22;;
23614;SDS011;11985;49.404;7.734;2022-10-16T08:23:37;2.17;;;1.98;;
23614;SDS011;11985;49.404;7.734;2022-10-16T08:25:39;3.90;;;2.25;;
23614;SDS011;11985;49.404;7.734;2022-10-16T08:27:41;7.47;;;2.25;;
23614;SDS011;11985;49.404;7.734;2022-10-16T08:29:44;3.95;;;2.20;;
23614;SDS011;11985;49.404;7.734;2022-10-16T08:31:46;6.13;;;2.17;;
23614;SDS011;11985;49.404;7.734;2022-10-16T08:33:56;6.57;;;2.20;;
23614;SDS011;11985;49.404;7.734;2022-10-16T08:35:58;3.67;;;2.03;;
23614;SDS011;11985;49.404;7.734;2022-10-16T08:38:00;3.70;;;2.40;;
23614;SDS011;11985;49.404;7.734;2022-10-16T08:40:04;5.57;;;2.20;;
23614;SDS011;11985;49.404;7.734;2022-10-16T08:42:11;5.72;;;2.20;;
23614;SDS011;11985;49.404;7.734;2022-10-16T08:44:32;6.90;;;2.60;;
23614;SDS011;11985;49.404;7.734;2022-10-16T08:46:58;5.70;;;2.85;;
23614;SDS011;11985;49.404;7.734;2022-10-16T08:49:15;4.70;;;2.67;;
23614;SDS011;11985;49.404;7.734;2022-10-16T08:51:20;6.20;;;3.22;;
23614;SDS011;11985;49.404;7.734;2022-10-16T08:53:36;7.45;;;2.97;;
23614;SDS011;11985;49.404;7.734;2022-10-16T08:55:45;7.45;;;2.80;;
23614;SDS011;11985;49.404;7.734;2022-10-16T08:57:50;8.57;;;3.03;;
23614;SDS011;11985;49.404;7.734;2022-10-16T08:59:57;6.72;;;2.67;;
23614;SDS011;11985;49.404;7.734;2022-10-16T09:02:01;5.72;;;2.80;;
23614;SDS011;11985;49.404;7.734;2022-10-16T09:06:59;9.38;;;2.75;;
23614;SDS011;11985;49.404;7.734;2022-10-16T09:09:09;8.45;;;2.88;;
23614;SDS011;11985;49.404;7.734;2022-10-16T09:11:32;5.90;;;2.55;;
23614;SDS011;11985;49.404;7.734;2022-10-16T09:13:43;11.93;;;2.95;;
23614;SDS011;11985;49.404;7.734;2022-10-16T09:15:56;10.27;;;3.20;;
23614;SDS011;11985;49.404;7.734;2022-10-16T09:18:09;4.85;;;2.80;;
23614;SDS011;11985;49.404;7.734;2022-10-16T09:20:29;7.10;;;3.20;;
23614;SDS011;11985;49.404;7.734;2022-10-16T09:22:42;5.07;;;3.10;;
23614;SDS011;11985;49.404;7.734;2022-10-16T09:24:46;5.57;;;2.63;;
23614;SDS011;11985;49.404;7.734;2022-10-16T09:26:48;4.65;;;2.70;;
23614;SDS011;11985;49.404;7.734;2022-10-16T09:28:51;4.03;;;2.67;;
23614;SDS011;11985;49.404;7.734;2022-10-16T09:30:54;8.13;;;2.90;;
23614;SDS011;11985;49.404;7.734;2022-10-16T09:32:57;4.80;;;2.90;;
23614;SDS011;11985;49.404;7.734;2022-10-16T09:35:00;6.90;;;3.15;;
23614;SDS011;11985;49.404;7.734;2022-10-16T09:37:07;8.65;;;2.63;;
23614;SDS011;11985;49.404;7.734;2022-10-16T09:39:17;9.43;;;2.88;;
23614;SDS011;11985;49.404;7.734;2022-10-16T09:41:20;7.05;;;2.75;;
23614;SDS011;11985;49.404;7.734;2022-10-16T09:43:32;9.98;;;2.92;;
23614;SDS011;11985;49.404;7.734;2022-10-16T09:45:37;5.28;;;2.67;;
23614;SDS011;11985;49.404;7.734;2022-10-16T09:47:39;8.57;;;3.25;;
23614;SDS011;11985;49.404;7.734;2022-10-16T09:49:52;7.85;;;2.45;;
23614;SDS011;11985;49.404;7.734;2022-10-16T09:52:02;2.60;;;2.17;;
23614;SDS011;11985;49.404;7.734;2022-10-16T09:54:13;13.30;;;3.03;;
23614;SDS011;11985;49.404;7.734;2022-10-16T09:56:21;5.10;;;2.72;;
23614;SDS011;11985;49.404;7.734;2022-10-16T09:58:25;4.50;;;3.15;;
23614;SDS011;11985;49.404;7.734;2022-10-16T10:00:27;9.70;;;3.03;;
23614;SDS011;11985;49.404;7.734;2022-10-16T10:02:33;8.88;;;2.80;;
23614;SDS011;11985;49.404;7.734;2022-10-16T10:04:44;7.15;;;2.70;;
23614;SDS011;11985;49.404;7.734;2022-10-16T10:06:52;6.07;;;2.65;;
23614;SDS011;11985;49.404;7.734;2022-10-16T10:09:03;5.53;;;2.75;;
23614;SDS011;11985;49.404;7.734;2022-10-16T10:11:10;5.80;;;2.40;;
23614;SDS011;11985;49.404;7.734;2022-10-16T10:13:16;7.72;;;2.40;;
23614;SDS011;11985;49.404;7.734;2022-10-16T10:15:20;5.32;;;2.40;;
23614;SDS011;11985;49.404;7.734;2022-10-16T10:17:24;4.03;;;2.53;;
23614;SDS011;11985;49.404;7.734;2022-10-16T10:19:27;10.55;;;2.50;;
23614;SDS011;11985;49.404;7.734;2022-10-16T10:21:32;3.75;;;2.80;;
23614;SDS011;11985;49.404;7.734;2022-10-16T10:23:34;5.28;;;2.88;;
23614;SDS011;11985;49.404;7.734;2022-10-16T10:27:56;8.73;;;2.80;;
23614;SDS011;11985;49.404;7.734;2022-10-16T10:30:21;4.70;;;2.83;;
23614;SDS011;11985;49.404;7.734;2022-10-16T10:32:28;6.13;;;2.67;;
23614;SDS011;11985;49.404;7.734;2022-10-16T10:34:45;8.07;;;2.60;;
23614;SDS011;11985;49.404;7.734;2022-10-16T10:36:57;6.07;;;2.70;;
23614;SDS011;11985;49.404;7.734;2022-10-16T10:39:06;6.72;;;2.63;;
23614;SDS011;11985;49.404;7.734;2022-10-16T10:41:24;3.55;;;2.60;;
23614;SDS011;11985;49.404;7.734;2022-10-16T10:43:42;9.02;;;2.85;;
23614;SDS011;11985;49.404;7.734;2022-10-16T10:45:57;7.20;;;2.67;;
23614;SDS011;11985;49.404;7.734;2022-10-16T10:48:09;6.28;;;2.53;;
23614;SDS011;11985;49.404;7.734;2022-10-16T10:50:22;9.32;;;2.88;;
23614;SDS011;11985;49.404;7.734;2022-10-16T10:52:34;4.07;;;2.28;;
23614;SDS011;11985;49.404;7.734;2022-10-16T10:54:46;7.75;;;2.72;;
23614;SDS011;11985;49.404;7.734;2022-10-16T10:56:56;5.15;;;2.78;;
23614;SDS011;11985;49.404;7.734;2022-10-16T10:59:05;7.57;;;2.33;;
23614;SDS011;11985;49.404;7.734;2022-10-16T11:01:16;5.13;;;2.63;;
23614;SDS011;11985;49.404;7.734;2022-10-16T11:03:32;4.50;;;2.72;;
23614;SDS011;11985;49.404;7.734;2022-10-16T11:05:44;5.20;;;2.63;;
23614;SDS011;11985;49.404;7.734;2022-10-16T11:07:52;4.32;;;2.10;;
23614;SDS011;11985;49.404;7.734;2022-10-16T11:10:01;9.13;;;2.97;;
23614;SDS011;11985;49.404;7.734;2022-10-16T11:12:07;4.65;;;2.40;;
23614;SDS011;11985;49.404;7.734;2022-10-16T11:14:16;7.13;;;2.97;;
23614;SDS011;11985;49.404;7.734;2022-10-16T11:16:21;9.55;;;2.70;;
23614;SDS011;11985;49.404;7.734;2022-10-16T11:18:30;5.30;;;2.38;;
23614;SDS011;11985;49.404;7.734;2022-10-16T11:20:39;8.38;;;2.85;;
23614;SDS011;11985;49.404;7.734;2022-10-16T11:22:47;5.38;;;2.45;;
23614;SDS011;11985;49.404;7.734;2022-10-16T11:24:53;6.50;;;2.53;;
23614;SDS011;11985;49.404;7.734;2022-10-16T11:27:04;6.90;;;1.95;;
23614;SDS011;11985;49.404;7.734;2022-10-16T11:29:10;6.80;;;2.22;;
23614;SDS011;11985;49.404;7.734;2022-10-16T11:31:21;6.43;;;2.55;;
23614;SDS011;11985;49.404;7.734;2022-10-16T11:33:30;5.10;;;2.50;;
23614;SDS011;11985;49.404;7.734;2022-10-16T11:35:39;7.38;;;2.50;;
23614;SDS011;11985;49.404;7.734;2022-10-16T11:37:46;3.58;;;2.20;;
23614;SDS011;11985;49.404;7.734;2022-10-16T11:39:50;10.98;;;2.88;;
23614;SDS011;11985;49.404;7.734;2022-10-16T11:41:59;8.95;;;2.42;;
23614;SDS011;11985;49.404;7.734;2022-10-16T11:44:40;6.57;;;2.47;;
23614;SDS011;11985;49.404;7.734;2022-10-16T11:46:53;5.97;;;2.08;;
23614;SDS011;11985;49.404;7.734;2022-10-16T11:49:03;4.95;;;1.90;;
23614;SDS011;11985;49.404;7.734;2022-10-16T11:51:16;4.55;;;2.13;;
23614;SDS011;11985;49.404;7.734;2022-10-16T11:53:28;7.85;;;2.58;;
23614;SDS011;11985;49.404;7.734;2022-10-16T11:58:03;2.40;;;1.80;;
23614;SDS011;11985;49.404;7.734;2022-10-16T12:00:08;5.28;;;1.90;;
23614;SDS011;11985;49.404;7.734;2022-10-16T12:02:25;2.45;;;1.83;;
23614;SDS011;11985;49.404;7.734;2022-10-16T12:04:36;2.75;;;2.05;;
23614;SDS011;11985;49.404;7.734;2022-10-16T12:06:46;9.13;;;2.00;;
23614;SDS011;11985;49.404;7.734;2022-10-16T12:08:54;4.35;;;2.00;;
23614;SDS011;11985;49.404;7.734;2022-10-16T12:11:06;3.55;;;2.10;;
23614;SDS011;11985;49.404;7.734;2022-10-16T12:13:29;4.97;;;2.35;;
23614;SDS011;11985;49.404;7.734;2022-10-16T12:15:40;3.97;;;1.60;;
23614;SDS011;11985;49.404;7.734;2022-10-16T12:17:43;4.68;;;2.10;;
23614;SDS011;11985;49.404;7.734;2022-10-16T12:19:45;4.78;;;1.90;;
23614;SDS011;11985;49.404;7.734;2022-10-16T12:21:59;14.85;;;2.13;;
23614;SDS011;11985;49.404;7.734;2022-10-16T12:24:03;3.10;;;2.15;;
23614;SDS011;11985;49.404;7.734;2022-10-16T12:26:07;2.83;;;1.83;;
23614;SDS011;11985;49.404;7.734;2022-10-16T12:30:20;6.87;;;2.10;;
23614;SDS011;11985;49.404;7.734;2022-10-16T12:32:27;5.75;;;1.98;;
23614;SDS011;11985;49.404;7.734;2022-10-16T12:34:34;6.20;;;2.10;;
23614;SDS011;11985;49.404;7.734;2022-10-16T12:36:40;4.13;;;2.00;;
23614;SDS011;11985;49.404;7.734;2022-10-16T12:38:45;6.43;;;2.42;;
23614;SDS011;11985;49.404;7.734;2022-10-16T12:40:54;8.77;;;1.92;;
23614;SDS011;11985;49.404;7.734;2022-10-16T12:43:10;5.72;;;2.25;;
23614;SDS011;11985;49.404;7.734;2022-10-16T12:45:32;7.05;;;2.38;;
23614;SDS011;11985;49.404;7.734;2022-10-16T12:47:36;4.25;;;1.98;;
23614;SDS011;11985;49.404;7.734;2022-10-16T12:49:51;5.15;;;2.22;;
23614;SDS011;11985;49.404;7.734;2022-10-16T12:51:55;8.07;;;3.03;;
23614;SDS011;11985;49.404;7.734;2022-10-16T12:54:00;8.63;;;1.98;;
23614;SDS011;11985;49.404;7.734;2022-10-16T12:56:09;5.13;;;2.50;;
23614;SDS011;11985;49.404;7.734;2022-10-16T12:58:25;5.90;;;2.53;;
23614;SDS011;11985;49.404;7.734;2022-10-16T13:00:48;3.38;;;2.13;;
23614;SDS011;11985;49.404;7.734;2022-10-16T13:03:04;10.85;;;2.38;;
23614;SDS011;11985;49.404;7.734;2022-10-16T13:05:45;9.05;;;2.20;;
23614;SDS011;11985;49.404;7.734;2022-10-16T13:08:02;13.52;;;2.35;;
23614;SDS011;11985;49.404;7.734;2022-10-16T13:10:15;7.30;;;2.28;;
23614;SDS011;11985;49.404;7.734;2022-10-16T13:12:38;9.05;;;2.88;;
23614;SDS011;11985;49.404;7.734;2022-10-16T13:14:58;6.72;;;2.13;;
23614;SDS011;11985;49.404;7.734;2022-10-16T13:17:16;17.23;;;3.08;;
23614;SDS011;11985;49.404;7.734;2022-10-16T13:19:27;13.07;;;2.45;;
23614;SDS011;11985;49.404;7.734;2022-10-16T13:21:39;8.93;;;2.55;;
23614;SDS011;11985;49.404;7.734;2022-10-16T13:24:13;4.75;;;2.00;;
23614;SDS011;11985;49.404;7.734;2022-10-16T13:26:28;4.07;;;2.20;;